sensor_id;sensor_type;location;lat;lon;timestamp;pressure;altitude;pressure_sealevel;temperature;humidity
12219;BME280;6172;42.646;23.344;2023-05-11T00:01:10;94814.44;;;7.26;100.00
12219;BME280;6172;42.646;23.344;2023-05-11T00:03:37;94825.28;;;7.30;100.00
12219;BME280;6172;42.646;23.344;2023-05-11T00:06:04;94812.88;;;7.29;100.00
12219;BME280;6172;42.646;23.344;2023-05-11T00:08:31;94826.06;;;7.16;100.00
12219;BME280;6172;42.646;23.344;2023-05-11T00:10:59;94832.25;;;7.20;100.00
12219;BME280;6172;42.646;23.344;2023-05-11T00:13:26;94830.72;;;7.16;100.00
12219;BME280;6172;42.646;23.344;2023-05-11T00:15:53;94829.56;;;7.24;100.00
12219;BME280;6172;42.646;23.344;2023-05-11T00:18:20;94829.56;;;7.13;100.00
12219;BME280;6172;42.646;23.344;2023-05-11T00:20:47;94826.81;;;7.17;100.00
12219;BME280;6172;42.646;23.344;2023-05-11T00:23:14;94829.16;;;7.18;100.00
12219;BME280;6172;42.646;23.344;2023-05-11T00:25:41;94835.75;;;7.07;100.00
12219;BME280;6172;42.646;23.344;2023-05-11T00:28:09;94832.28;;;6.99;100.00
12219;BME280;6172;42.646;23.344;2023-05-11T00:30:36;94836.53;;;6.93;100.00
12219;BME280;6172;42.646;23.344;2023-05-11T00:33:02;94830.31;;;7.07;100.00
12219;BME280;6172;42.646;23.344;2023-05-11T00:35:30;94828.41;;;7.00;100.00
12219;BME280;6172;42.646;23.344;2023-05-11T00:37:57;94836.91;;;7.06;100.00
12219;BME280;6172;42.646;23.344;2023-05-11T00:40:24;94831.88;;;7.04;100.00
12219;BME280;6172;42.646;23.344;2023-05-11T00:42:51;94839.63;;;7.06;100.00
12219;BME280;6172;42.646;23.344;2023-05-11T00:45:22;94841.16;;;7.03;100.00
12219;BME280;6172;42.646;23.344;2023-05-11T00:47:49;94835.34;;;7.08;100.00
12219;BME280;6172;42.646;23.344;2023-05-11T00:50:16;94838.47;;;6.89;100.00
12219;BME280;6172;42.646;23.344;2023-05-11T00:52:44;94840.78;;;6.98;100.00
12219;BME280;6172;42.646;23.344;2023-05-11T00:55:12;94841.53;;;6.91;100.00
12219;BME280;6172;42.646;23.344;2023-05-11T00:57:39;94838.44;;;6.86;100.00
12219;BME280;6172;42.646;23.344;2023-05-11T01:00:07;94848.91;;;6.94;100.00
12219;BME280;6172;42.646;23.344;2023-05-11T01:02:37;94850.84;;;6.90;100.00
12219;BME280;6172;42.646;23.344;2023-05-11T01:05:05;94836.91;;;6.81;100.00
12219;BME280;6172;42.646;23.344;2023-05-11T01:07:36;94846.97;;;6.98;100.00
12219;BME280;6172;42.646;23.344;2023-05-11T01:10:09;94849.28;;;6.93;100.00
12219;BME280;6172;42.646;23.344;2023-05-11T01:12:46;94845.41;;;6.80;100.00
12219;BME280;6172;42.646;23.344;2023-05-11T01:15:23;94835.34;;;6.80;100.00
12219;BME280;6172;42.646;23.344;2023-05-11T01:17:57;94846.56;;;6.79;100.00
12219;BME280;6172;42.646;23.344;2023-05-11T01:20:29;94842.28;;;6.71;100.00
12219;BME280;6172;42.646;23.344;2023-05-11T01:23:11;94843.09;;;6.68;100.00
12219;BME280;6172;42.646;23.344;2023-05-11T01:26:09;94836.09;;;6.74;100.00
12219;BME280;6172;42.646;23.344;2023-05-11T01:28:50;94836.88;;;6.53;100.00
12219;BME280;6172;42.646;23.344;2023-05-11T01:31:20;94851.59;;;6.66;100.00
12219;BME280;6172;42.646;23.344;2023-05-11T01:33:53;94852.38;;;6.70;100.00
12219;BME280;6172;42.646;23.344;2023-05-11T01:36:23;94841.53;;;6.70;100.00
12219;BME280;6172;42.646;23.344;2023-05-11T01:38:52;94848.13;;;6.69;100.00
12219;BME280;6172;42.646;23.344;2023-05-11T01:41:20;94844.63;;;6.69;100.00
12219;BME280;6172;42.646;23.344;2023-05-11T01:43:52;94855.44;;;6.65;100.00
12219;BME280;6172;42.646;23.344;2023-05-11T01:46:24;94844.59;;;6.65;100.00
12219;BME280;6172;42.646;23.344;2023-05-11T01:48:53;94850.78;;;6.59;100.00
12219;BME280;6172;42.646;23.344;2023-05-11T01:51:23;94834.16;;;6.53;100.00
12219;BME280;6172;42.646;23.344;2023-05-11T01:53:52;94843.06;;;6.57;100.00
12219;BME280;6172;42.646;23.344;2023-05-11T01:56:20;94848.06;;;6.62;100.00
12219;BME280;6172;42.646;23.344;2023-05-11T01:58:50;94837.66;;;6.64;100.00
12219;BME280;6172;42.646;23.344;2023-05-11T02:01:18;94845.38;;;6.66;100.00
12219;BME280;6172;42.646;23.344;2023-05-11T02:03:46;94824.50;;;6.63;100.00
12219;BME280;6172;42.646;23.344;2023-05-11T02:06:16;94839.19;;;6.58;100.00
12219;BME280;6172;42.646;23.344;2023-05-11T02:08:44;94835.34;;;6.73;100.00
12219;BME280;6172;42.646;23.344;2023-05-11T02:11:12;94832.25;;;6.71;100.00
12219;BME280;6172;42.646;23.344;2023-05-11T02:13:41;94832.63;;;6.73;100.00
12219;BME280;6172;42.646;23.344;2023-05-11T02:16:09;94821.03;;;6.66;100.00
12219;BME280;6172;42.646;23.344;2023-05-11T02:18:38;94829.16;;;6.69;100.00
12219;BME280;6172;42.646;23.344;2023-05-11T02:21:08;94826.84;;;6.68;100.00
12219;BME280;6172;42.646;23.344;2023-05-11T02:23:36;94812.91;;;6.66;100.00
12219;BME280;6172;42.646;23.344;2023-05-11T02:26:04;94824.09;;;6.57;100.00
12219;BME280;6172;42.646;23.344;2023-05-11T02:28:31;94820.63;;;6.71;100.00
12219;BME280;6172;42.646;23.344;2023-05-11T02:31:03;94823.75;;;6.69;100.00
12219;BME280;6172;42.646;23.344;2023-05-11T02:33:33;94822.56;;;6.67;100.00
12219;BME280;6172;42.646;23.344;2023-05-11T02:36:01;94823.34;;;6.67;100.00
12219;BME280;6172;42.646;23.344;2023-05-11T02:38:32;94825.19;;;6.49;100.00
12219;BME280;6172;42.646;23.344;2023-05-11T02:41:03;94816.69;;;6.40;100.00
12219;BME280;6172;42.646;23.344;2023-05-11T02:43:34;94822.09;;;6.40;100.00
12219;BME280;6172;42.646;23.344;2023-05-11T02:46:02;94822.88;;;6.37;100.00
12219;BME280;6172;42.646;23.344;2023-05-11T02:48:35;94828.69;;;6.43;100.00
12219;BME280;6172;42.646;23.344;2023-05-11T02:51:06;94828.25;;;6.34;100.00
12219;BME280;6172;42.646;23.344;2023-05-11T02:53:36;94825.19;;;6.32;100.00
12219;BME280;6172;42.646;23.344;2023-05-11T02:56:05;94830.59;;;6.25;100.00
12219;BME280;6172;42.646;23.344;2023-05-11T02:58:33;94822.06;;;6.26;100.00
12219;BME280;6172;42.646;23.344;2023-05-11T03:01:00;94825.91;;;6.25;100.00
12219;BME280;6172;42.646;23.344;2023-05-11T03:03:28;94822.41;;;6.11;100.00
12219;BME280;6172;42.646;23.344;2023-05-11T03:05:55;94826.69;;;6.29;100.00
12219;BME280;6172;42.646;23.344;2023-05-11T03:08:21;94825.56;;;6.30;100.00
12219;BME280;6172;42.646;23.344;2023-05-11T03:10:50;94820.91;;;6.31;100.00
12219;BME280;6172;42.646;23.344;2023-05-11T03:13:18;94823.22;;;6.25;100.00
12219;BME280;6172;42.646;23.344;2023-05-11T03:15:46;94815.84;;;6.15;100.00
12219;BME280;6172;42.646;23.344;2023-05-11T03:18:13;94815.84;;;6.15;100.00
12219;BME280;6172;42.646;23.344;2023-05-11T03:20:42;94827.44;;;6.19;100.00
12219;BME280;6172;42.646;23.344;2023-05-11T03:23:11;94820.50;;;6.18;100.00
12219;BME280;6172;42.646;23.344;2023-05-11T03:25:40;94826.66;;;6.05;100.00
12219;BME280;6172;42.646;23.344;2023-05-11T03:28:10;94827.41;;;6.02;100.00
12219;BME280;6172;42.646;23.344;2023-05-11T03:30:38;94830.09;;;6.05;100.00
12219;BME280;6172;42.646;23.344;2023-05-11T03:33:06;94829.72;;;6.03;100.00
12219;BME280;6172;42.646;23.344;2023-05-11T03:35:33;94824.31;;;6.03;100.00
12219;BME280;6172;42.646;23.344;2023-05-11T03:38:03;94829.31;;;6.01;100.00
12219;BME280;6172;42.646;23.344;2023-05-11T03:40:32;94829.72;;;6.00;100.00
12219;BME280;6172;42.646;23.344;2023-05-11T03:43:01;94830.91;;;6.06;100.00
12219;BME280;6172;42.646;23.344;2023-05-11T03:45:32;94843.22;;;6.00;100.00
12219;BME280;6172;42.646;23.344;2023-05-11T03:48:00;94831.28;;;6.11;100.00
12219;BME280;6172;42.646;23.344;2023-05-11T03:50:28;94829.72;;;6.03;100.00
12219;BME280;6172;42.646;23.344;2023-05-11T03:52:56;94832.41;;;6.00;100.00
12219;BME280;6172;42.646;23.344;2023-05-11T03:55:23;94844.03;;;6.07;100.00
12219;BME280;6172;42.646;23.344;2023-05-11T03:57:51;94843.59;;;5.98;100.00
12219;BME280;6172;42.646;23.344;2023-05-11T04:00:18;94837.41;;;5.98;100.00
12219;BME280;6172;42.646;23.344;2023-05-11T04:02:46;94844.06;;;6.14;100.00
12219;BME280;6172;42.646;23.344;2023-05-11T04:05:13;94837.91;;;6.17;100.00
12219;BME280;6172;42.646;23.344;2023-05-11T04:07:40;94846.38;;;6.12;100.00
12219;BME280;6172;42.646;23.344;2023-05-11T04:10:07;94839.78;;;6.10;100.00
12219;BME280;6172;42.646;23.344;2023-05-11T04:12:34;94840.94;;;6.05;100.00
12219;BME280;6172;42.646;23.344;2023-05-11T04:15:01;94851.00;;;6.05;100.00
12219;BME280;6172;42.646;23.344;2023-05-11T04:17:28;94847.94;;;6.17;100.00
12219;BME280;6172;42.646;23.344;2023-05-11T04:19:57;94849.47;;;6.14;100.00
12219;BME280;6172;42.646;23.344;2023-05-11T04:22:23;94848.34;;;6.22;100.00
12219;BME280;6172;42.646;23.344;2023-05-11T04:24:50;94849.03;;;5.98;100.00
12219;BME280;6172;42.646;23.344;2023-05-11T04:27:17;94863.75;;;6.04;100.00
12219;BME280;6172;42.646;23.344;2023-05-11T04:29:44;94865.25;;;5.98;100.00
12219;BME280;6172;42.646;23.344;2023-05-11T04:32:10;94857.53;;;6.00;100.00
12219;BME280;6172;42.646;23.344;2023-05-11T04:34:37;94868.78;;;6.09;100.00
12219;BME280;6172;42.646;23.344;2023-05-11T04:37:06;94869.97;;;6.15;100.00
12219;BME280;6172;42.646;23.344;2023-05-11T04:39:33;94873.03;;;6.14;100.00
12219;BME280;6172;42.646;23.344;2023-05-11T04:42:00;94882.34;;;6.20;100.00
12219;BME280;6172;42.646;23.344;2023-05-11T04:44:27;94875.72;;;6.07;100.00
12219;BME280;6172;42.646;23.344;2023-05-11T04:46:54;94881.53;;;6.12;100.00
12219;BME280;6172;42.646;23.344;2023-05-11T04:49:21;94868.41;;;6.07;100.00
12219;BME280;6172;42.646;23.344;2023-05-11T04:51:48;94887.31;;;6.04;100.00
12219;BME280;6172;42.646;23.344;2023-05-11T04:54:16;94868.38;;;6.11;100.00
12219;BME280;6172;42.646;23.344;2023-05-11T04:56:43;94870.69;;;6.05;100.00
12219;BME280;6172;42.646;23.344;2023-05-11T04:59:10;94877.63;;;5.96;100.00
12219;BME280;6172;42.646;23.344;2023-05-11T05:01:37;94883.06;;;6.06;100.00
12219;BME280;6172;42.646;23.344;2023-05-11T05:04:04;94891.59;;;6.12;100.00
12219;BME280;6172;42.646;23.344;2023-05-11T05:06:31;94893.13;;;6.06;100.00
12219;BME280;6172;42.646;23.344;2023-05-11T05:08:58;94897.84;;;6.26;100.00
12219;BME280;6172;42.646;23.344;2023-05-11T05:11:26;94886.25;;;6.29;100.00
12219;BME280;6172;42.646;23.344;2023-05-11T05:13:53;94904.84;;;6.34;100.00
12219;BME280;6172;42.646;23.344;2023-05-11T05:16:21;94904.81;;;6.27;100.00
12219;BME280;6172;42.646;23.344;2023-05-11T05:18:47;94912.56;;;6.39;100.00
12219;BME280;6172;42.646;23.344;2023-05-11T05:21:14;94902.88;;;6.31;100.00
12219;BME280;6172;42.646;23.344;2023-05-11T05:23:41;94903.34;;;6.47;100.00
12219;BME280;6172;42.646;23.344;2023-05-11T05:26:08;94906.38;;;6.35;100.00
12219;BME280;6172;42.646;23.344;2023-05-11T05:28:39;94907.91;;;6.26;100.00
12219;BME280;6172;42.646;23.344;2023-05-11T05:31:06;94907.47;;;6.13;100.00
12219;BME280;6172;42.646;23.344;2023-05-11T05:33:33;94917.06;;;6.04;100.00
12219;BME280;6172;42.646;23.344;2023-05-11T05:36:00;94913.16;;;5.98;100.00
12219;BME280;6172;42.646;23.344;2023-05-11T05:38:27;94905.03;;;5.98;100.00
12219;BME280;6172;42.646;23.344;2023-05-11T05:40:54;94910.09;;;6.06;100.00
12219;BME280;6172;42.646;23.344;2023-05-11T05:43:20;94905.81;;;5.95;100.00
12219;BME280;6172;42.646;23.344;2023-05-11T05:45:49;94912.06;;;6.06;100.00
12219;BME280;6172;42.646;23.344;2023-05-11T05:48:15;94909.66;;;5.90;100.00
12219;BME280;6172;42.646;23.344;2023-05-11T05:50:42;94913.91;;;5.91;100.00
12219;BME280;6172;42.646;23.344;2023-05-11T05:53:09;94922.91;;;6.13;100.00
12219;BME280;6172;42.646;23.344;2023-05-11T05:55:36;94918.69;;;6.19;100.00
12219;BME280;6172;42.646;23.344;2023-05-11T05:58:03;94919.50;;;6.26;100.00
12219;BME280;6172;42.646;23.344;2023-05-11T06:00:30;94923.69;;;6.17;100.00
12219;BME280;6172;42.646;23.344;2023-05-11T06:02:58;94921.81;;;6.24;100.00
12219;BME280;6172;42.646;23.344;2023-05-11T06:05:25;94908.94;;;6.04;100.00
12219;BME280;6172;42.646;23.344;2023-05-11T06:07:52;94926.44;;;6.20;100.00
12219;BME280;6172;42.646;23.344;2023-05-11T06:10:18;94923.78;;;6.34;100.00
12219;BME280;6172;42.646;23.344;2023-05-11T06:12:45;94914.84;;;6.23;100.00
12219;BME280;6172;42.646;23.344;2023-05-11T06:15:12;94932.25;;;6.29;100.00
12219;BME280;6172;42.646;23.344;2023-05-11T06:17:39;94933.81;;;6.23;100.00
12219;BME280;6172;42.646;23.344;2023-05-11T06:20:08;94936.50;;;6.23;100.00
12219;BME280;6172;42.646;23.344;2023-05-11T06:22:35;94935.75;;;6.26;100.00
12219;BME280;6172;42.646;23.344;2023-05-11T06:25:03;94932.97;;;6.19;100.00
12219;BME280;6172;42.646;23.344;2023-05-11T06:27:30;94930.28;;;6.16;100.00
12219;BME280;6172;42.646;23.344;2023-05-11T06:29:57;94940.34;;;6.22;100.00
12219;BME280;6172;42.646;23.344;2023-05-11T06:32:24;94928.00;;;6.28;100.00
12219;BME280;6172;42.646;23.344;2023-05-11T06:34:51;94953.56;;;6.34;100.00
12219;BME280;6172;42.646;23.344;2023-05-11T06:37:19;94945.00;;;6.25;100.00
12219;BME280;6172;42.646;23.344;2023-05-11T06:39:46;94945.78;;;6.29;100.00
12219;BME280;6172;42.646;23.344;2023-05-11T06:42:13;94947.31;;;6.23;100.00
12219;BME280;6172;42.646;23.344;2023-05-11T06:44:40;94931.13;;;6.30;100.00
12219;BME280;6172;42.646;23.344;2023-05-11T06:47:07;94945.38;;;6.20;100.00
12219;BME280;6172;42.646;23.344;2023-05-11T06:49:34;94954.34;;;6.35;100.00
12219;BME280;6172;42.646;23.344;2023-05-11T06:52:01;94948.50;;;6.29;100.00
12219;BME280;6172;42.646;23.344;2023-05-11T06:54:29;94944.66;;;6.30;100.00
12219;BME280;6172;42.646;23.344;2023-05-11T06:56:56;94947.78;;;6.36;100.00
12219;BME280;6172;42.646;23.344;2023-05-11T06:59:23;94935.75;;;6.30;100.00
12219;BME280;6172;42.646;23.344;2023-05-11T07:01:50;94940.06;;;6.48;100.00
12219;BME280;6172;42.646;23.344;2023-05-11T07:04:17;94947.38;;;6.37;100.00
12219;BME280;6172;42.646;23.344;2023-05-11T07:06:44;94956.00;;;6.53;100.00
12219;BME280;6172;42.646;23.344;2023-05-11T07:09:11;94949.00;;;6.52;100.00
12219;BME280;6172;42.646;23.344;2023-05-11T07:11:39;94949.00;;;6.52;100.00
12219;BME280;6172;42.646;23.344;2023-05-11T07:14:06;94948.59;;;6.50;100.00
12219;BME280;6172;42.646;23.344;2023-05-11T07:16:33;94949.06;;;6.63;100.00
12219;BME280;6172;42.646;23.344;2023-05-11T07:19:02;94952.84;;;6.48;100.00
12219;BME280;6172;42.646;23.344;2023-05-11T07:21:29;94946.66;;;6.51;100.00
12219;BME280;6172;42.646;23.344;2023-05-11T07:23:57;94950.66;;;6.74;100.00
12219;BME280;6172;42.646;23.344;2023-05-11T07:26:24;94932.50;;;6.96;100.00
12219;BME280;6172;42.646;23.344;2023-05-11T07:28:52;94945.69;;;7.04;100.00
12219;BME280;6172;42.646;23.344;2023-05-11T07:31:19;94949.56;;;7.03;100.00
12219;BME280;6172;42.646;23.344;2023-05-11T07:33:46;94943.00;;;7.15;100.00
12219;BME280;6172;42.646;23.344;2023-05-11T07:36:13;94933.72;;;7.51;100.00
12219;BME280;6172;42.646;23.344;2023-05-11T07:38:40;94932.19;;;7.53;100.00
12219;BME280;6172;42.646;23.344;2023-05-11T07:41:07;94932.91;;;7.92;100.00
12219;BME280;6172;42.646;23.344;2023-05-11T07:43:34;94937.94;;;7.97;100.00
12219;BME280;6172;42.646;23.344;2023-05-11T07:46:02;94931.72;;;8.00;100.00
12219;BME280;6172;42.646;23.344;2023-05-11T07:48:29;94937.91;;;8.04;100.00
12219;BME280;6172;42.646;23.344;2023-05-11T07:50:55;94931.28;;;8.30;100.00
12219;BME280;6172;42.646;23.344;2023-05-11T07:53:22;94925.13;;;8.08;100.00
12219;BME280;6172;42.646;23.344;2023-05-11T07:55:49;94938.25;;;8.38;100.00
12219;BME280;6172;42.646;23.344;2023-05-11T07:58:16;94932.75;;;8.56;100.00
12219;BME280;6172;42.646;23.344;2023-05-11T08:00:43;94929.72;;;8.43;100.00
12219;BME280;6172;42.646;23.344;2023-05-11T08:03:11;94934.34;;;8.50;100.00
12219;BME280;6172;42.646;23.344;2023-05-11T08:05:38;94931.63;;;8.46;100.00
12219;BME280;6172;42.646;23.344;2023-05-11T08:08:05;94926.53;;;8.55;100.00
12219;BME280;6172;42.646;23.344;2023-05-11T08:10:32;94923.34;;;8.78;100.00
12219;BME280;6172;42.646;23.344;2023-05-11T08:13:00;94923.13;;;9.13;100.00
12219;BME280;6172;42.646;23.344;2023-05-11T08:15:27;94920.84;;;9.08;100.00
12219;BME280;6172;42.646;23.344;2023-05-11T08:17:54;94938.72;;;9.09;100.00
12219;BME280;6172;42.646;23.344;2023-05-11T08:20:23;94926.69;;;9.03;100.00
12219;BME280;6172;42.646;23.344;2023-05-11T08:22:50;94917.09;;;8.88;100.00
12219;BME280;6172;42.646;23.344;2023-05-11T08:25:17;94923.03;;;9.27;100.00
12219;BME280;6172;42.646;23.344;2023-05-11T08:27:43;94917.75;;;9.60;100.00
12219;BME280;6172;42.646;23.344;2023-05-11T08:30:11;94906.13;;;8.98;100.00
12219;BME280;6172;42.646;23.344;2023-05-11T08:32:38;94917.78;;;8.99;100.00
12219;BME280;6172;42.646;23.344;2023-05-11T08:35:05;94920.50;;;8.99;100.00
12219;BME280;6172;42.646;23.344;2023-05-11T08:37:34;94928.91;;;9.22;100.00
12219;BME280;6172;42.646;23.344;2023-05-11T08:40:01;94923.41;;;9.29;100.00
12219;BME280;6172;42.646;23.344;2023-05-11T08:42:32;94913.63;;;9.38;100.00
12219;BME280;6172;42.646;23.344;2023-05-11T08:45:00;94921.81;;;9.35;100.00
12219;BME280;6172;42.646;23.344;2023-05-11T08:47:28;94916.91;;;9.12;100.00
12219;BME280;6172;42.646;23.344;2023-05-11T08:49:56;94909.97;;;9.08;100.00
12219;BME280;6172;42.646;23.344;2023-05-11T08:52:23;94909.09;;;9.21;100.00
12219;BME280;6172;42.646;23.344;2023-05-11T08:54:52;94900.34;;;9.51;100.00
12219;BME280;6172;42.646;23.344;2023-05-11T08:57:19;94910.28;;;9.17;100.00
12219;BME280;6172;42.646;23.344;2023-05-11T08:59:47;94913.28;;;9.33;100.00
12219;BME280;6172;42.646;23.344;2023-05-11T09:02:18;94905.72;;;9.54;100.00
12219;BME280;6172;42.646;23.344;2023-05-11T09:04:46;94905.59;;;9.72;100.00
12219;BME280;6172;42.646;23.344;2023-05-11T09:07:14;94899.88;;;9.56;100.00
12219;BME280;6172;42.646;23.344;2023-05-11T09:09:41;94908.03;;;9.59;100.00
12219;BME280;6172;42.646;23.344;2023-05-11T09:12:11;94906.22;;;9.42;100.00
12219;BME280;6172;42.646;23.344;2023-05-11T09:14:38;94882.94;;;9.82;100.00
12219;BME280;6172;42.646;23.344;2023-05-11T09:17:04;94902.31;;;9.91;100.00
12219;BME280;6172;42.646;23.344;2023-05-11T09:19:31;94911.34;;;10.55;100.00
12219;BME280;6172;42.646;23.344;2023-05-11T09:21:58;94893.94;;;10.46;100.00
12219;BME280;6172;42.646;23.344;2023-05-11T09:24:25;94923.84;;;10.53;100.00
12219;BME280;6172;42.646;23.344;2023-05-11T09:27:05;94901.91;;;10.29;100.00
12219;BME280;6172;42.646;23.344;2023-05-11T09:29:34;94905.50;;;9.79;100.00
12219;BME280;6172;42.646;23.344;2023-05-11T09:32:01;94906.13;;;10.00;100.00
12219;BME280;6172;42.646;23.344;2023-05-11T09:34:28;94916.81;;;9.77;100.00
12219;BME280;6172;42.646;23.344;2023-05-11T09:36:55;94924.25;;;9.70;100.00
12219;BME280;6172;42.646;23.344;2023-05-11T09:39:29;94906.38;;;9.69;100.00
12219;BME280;6172;42.646;23.344;2023-05-11T09:42:11;94929.25;;;9.31;100.00
12219;BME280;6172;42.646;23.344;2023-05-11T09:44:40;94929.63;;;9.29;100.00
12219;BME280;6172;42.646;23.344;2023-05-11T09:47:11;94915.44;;;9.01;100.00
12219;BME280;6172;42.646;23.344;2023-05-11T09:49:39;94921.25;;;9.06;100.00
12219;BME280;6172;42.646;23.344;2023-05-11T09:52:09;94916.25;;;8.98;100.00
12219;BME280;6172;42.646;23.344;2023-05-11T09:54:41;94899.16;;;9.48;100.00
12219;BME280;6172;42.646;23.344;2023-05-11T09:57:22;94898.22;;;9.21;100.00
12219;BME280;6172;42.646;23.344;2023-05-11T09:59:50;94904.50;;;9.11;100.00
12219;BME280;6172;42.646;23.344;2023-05-11T10:02:21;94912.19;;;9.23;100.00
12219;BME280;6172;42.646;23.344;2023-05-11T10:04:49;94909.59;;;9.06;100.00
12219;BME280;6172;42.646;23.344;2023-05-11T10:07:27;94901.38;;;9.16;100.00
12219;BME280;6172;42.646;23.344;2023-05-11T10:09:55;94912.25;;;9.16;100.00
12219;BME280;6172;42.646;23.344;2023-05-11T10:12:23;94890.50;;;9.13;100.00
12219;BME280;6172;42.646;23.344;2023-05-11T10:14:55;94882.69;;;9.18;100.00
12219;BME280;6172;42.646;23.344;2023-05-11T10:17:24;94884.63;;;9.21;100.00
12219;BME280;6172;42.646;23.344;2023-05-11T10:19:53;94875.72;;;9.14;100.00
12219;BME280;6172;42.646;23.344;2023-05-11T10:22:21;94894.09;;;9.50;100.00
12219;BME280;6172;42.646;23.344;2023-05-11T10:24:49;94883.72;;;9.82;100.00
12219;BME280;6172;42.646;23.344;2023-05-11T10:27:16;94876.72;;;9.81;100.00
12219;BME280;6172;42.646;23.344;2023-05-11T10:29:43;94887.31;;;9.72;100.00
12219;BME280;6172;42.646;23.344;2023-05-11T10:32:13;94870.59;;;9.74;100.00
12219;BME280;6172;42.646;23.344;2023-05-11T10:34:41;94863.88;;;10.22;100.00
12219;BME280;6172;42.646;23.344;2023-05-11T10:37:08;94874.03;;;10.18;100.00
12219;BME280;6172;42.646;23.344;2023-05-11T10:39:36;94844.63;;;10.36;100.00
12219;BME280;6172;42.646;23.344;2023-05-11T10:42:33;94861.66;;;10.44;100.00
12219;BME280;6172;42.646;23.344;2023-05-11T10:45:20;94870.34;;;10.66;100.00
12219;BME280;6172;42.646;23.344;2023-05-11T10:51:08;94862.88;;;10.06;100.00
12219;BME280;6172;42.646;23.344;2023-05-11T10:53:49;94859.53;;;9.91;100.00
12219;BME280;6172;42.646;23.344;2023-05-11T10:56:42;94871.13;;;9.99;100.00
12219;BME280;6172;42.646;23.344;2023-05-11T10:59:36;94862.63;;;9.90;100.00
12219;BME280;6172;42.646;23.344;2023-05-11T11:02:08;94853.25;;;9.98;100.00
12219;BME280;6172;42.646;23.344;2023-05-11T11:04:44;94850.25;;;10.22;100.00
12219;BME280;6172;42.646;23.344;2023-05-11T11:07:13;94855.16;;;10.34;100.00
12219;BME280;6172;42.646;23.344;2023-05-11T11:09:50;94865.19;;;10.41;100.00
12219;BME280;6172;42.646;23.344;2023-05-11T11:12:18;94854.53;;;10.54;100.00
12219;BME280;6172;42.646;23.344;2023-05-11T11:14:56;94858.47;;;10.49;100.00
12219;BME280;6172;42.646;23.344;2023-05-11T11:17:24;94861.84;;;10.60;100.00
12219;BME280;6172;42.646;23.344;2023-05-11T11:19:52;94842.50;;;10.51;100.00
12219;BME280;6172;42.646;23.344;2023-05-11T11:22:45;94841.56;;;10.91;100.00
12219;BME280;6172;42.646;23.344;2023-05-11T11:25:50;94848.72;;;10.82;100.00
12219;BME280;6172;42.646;23.344;2023-05-11T11:28:02;94866.53;;;10.86;100.00
12219;BME280;6172;42.646;23.344;2023-05-11T11:30:29;94828.06;;;10.81;100.00
12219;BME280;6172;42.646;23.344;2023-05-11T11:36:03;94836.00;;;10.98;100.00
12219;BME280;6172;42.646;23.344;2023-05-11T11:38:31;94843.59;;;11.10;100.00
12219;BME280;6172;42.646;23.344;2023-05-11T11:40:58;94830.63;;;11.18;100.00
12219;BME280;6172;42.646;23.344;2023-05-11T11:43:27;94840.41;;;11.15;100.00
12219;BME280;6172;42.646;23.344;2023-05-11T11:45:55;94841.56;;;10.91;100.00
12219;BME280;6172;42.646;23.344;2023-05-11T11:48:28;94848.34;;;11.06;100.00
12219;BME280;6172;42.646;23.344;2023-05-11T11:51:03;94835.53;;;11.03;100.00
12219;BME280;6172;42.646;23.344;2023-05-11T11:54:05;94835.78;;;10.86;100.00
12219;BME280;6172;42.646;23.344;2023-05-11T11:56:42;94851.91;;;11.03;100.00
12219;BME280;6172;42.646;23.344;2023-05-11T11:59:11;94860.78;;;10.81;100.00
12219;BME280;6172;42.646;23.344;2023-05-11T12:01:40;94833.59;;;10.77;100.00
12219;BME280;6172;42.646;23.344;2023-05-11T12:06:57;94833.91;;;10.53;100.00
12219;BME280;6172;42.646;23.344;2023-05-11T12:09:26;94837.22;;;10.67;100.00
12219;BME280;6172;42.646;23.344;2023-05-11T12:11:54;94832.88;;;10.73;100.00
12219;BME280;6172;42.646;23.344;2023-05-11T12:14:23;94832.03;;;10.46;100.00
12219;BME280;6172;42.646;23.344;2023-05-11T12:17:05;94840.97;;;10.50;100.00
12219;BME280;6172;42.646;23.344;2023-05-11T12:19:38;94834.00;;;10.46;100.00
12219;BME280;6172;42.646;23.344;2023-05-11T12:22:05;94826.97;;;10.48;100.00
12219;BME280;6172;42.646;23.344;2023-05-11T12:24:33;94813.78;;;10.43;100.00
12219;BME280;6172;42.646;23.344;2023-05-11T12:27:02;94828.88;;;10.51;100.00
12219;BME280;6172;42.646;23.344;2023-05-11T12:29:29;94830.28;;;10.63;100.00
12219;BME280;6172;42.646;23.344;2023-05-11T12:31:58;94816.94;;;10.42;100.00
12219;BME280;6172;42.646;23.344;2023-05-11T12:34:26;94802.16;;;10.39;100.00
12219;BME280;6172;42.646;23.344;2023-05-11T12:36:53;94834.53;;;10.33;100.00
12219;BME280;6172;42.646;23.344;2023-05-11T12:39:22;94821.41;;;10.25;100.00
12219;BME280;6172;42.646;23.344;2023-05-11T12:41:52;94805.56;;;10.16;100.00
12219;BME280;6172;42.646;23.344;2023-05-11T12:44:21;94804.66;;;10.26;100.00
12219;BME280;6172;42.646;23.344;2023-05-11T12:46:49;94796.19;;;10.21;100.00
12219;BME280;6172;42.646;23.344;2023-05-11T12:49:17;94818.78;;;10.18;100.00
12219;BME280;6172;42.646;23.344;2023-05-11T12:51:48;94795.78;;;10.22;100.00
12219;BME280;6172;42.646;23.344;2023-05-11T12:54:26;94819.91;;;10.20;100.00
12219;BME280;6172;42.646;23.344;2023-05-11T12:56:55;94790.13;;;10.06;100.00
12219;BME280;6172;42.646;23.344;2023-05-11T12:59:33;94782.97;;;10.19;100.00
12219;BME280;6172;42.646;23.344;2023-05-11T13:02:10;94797.00;;;10.18;100.00
12219;BME280;6172;42.646;23.344;2023-05-11T13:04:38;94783.09;;;10.09;100.00
12219;BME280;6172;42.646;23.344;2023-05-11T13:07:05;94774.44;;;10.17;100.00
12219;BME280;6172;42.646;23.344;2023-05-11T13:09:32;94781.19;;;10.36;100.00
12219;BME280;6172;42.646;23.344;2023-05-11T13:12:14;94777.34;;;10.33;100.00
12219;BME280;6172;42.646;23.344;2023-05-11T13:14:42;94785.28;;;10.21;100.00
12219;BME280;6172;42.646;23.344;2023-05-11T13:17:09;94785.09;;;10.35;100.00